sensor_id;sensor_type;location;lat;lon;timestamp;P1;durP1;ratioP1;P2;durP2;ratioP2
61617;SDS011;47518;51.776;9.370;2023-06-10T00:01:48;7.50;;;6.85;;
61617;SDS011;47518;51.776;9.370;2023-06-10T00:04:13;7.88;;;7.03;;
61617;SDS011;47518;51.776;9.370;2023-06-10T00:06:41;8.63;;;6.72;;
61617;SDS011;47518;51.776;9.370;2023-06-10T00:09:09;6.70;;;6.05;;
61617;SDS011;47518;51.776;9.370;2023-06-10T00:11:38;8.00;;;6.18;;
61617;SDS011;47518;51.776;9.370;2023-06-10T00:14:04;6.78;;;5.85;;
61617;SDS011;47518;51.776;9.370;2023-06-10T00:16:29;6.43;;;5.85;;
61617;SDS011;47518;51.776;9.370;2023-06-10T00:18:55;7.32;;;5.60;;
61617;SDS011;47518;51.776;9.370;2023-06-10T00:21:25;6.45;;;5.53;;
61617;SDS011;47518;51.776;9.370;2023-06-10T00:23:51;5.93;;;5.35;;
61617;SDS011;47518;51.776;9.370;2023-06-10T00:26:21;8.43;;;5.32;;
61617;SDS011;47518;51.776;9.370;2023-06-10T00:28:47;6.05;;;5.40;;
61617;SDS011;47518;51.776;9.370;2023-06-10T00:31:16;5.90;;;5.38;;
61617;SDS011;47518;51.776;9.370;2023-06-10T00:33:48;8.07;;;5.35;;
61617;SDS011;47518;51.776;9.370;2023-06-10T00:36:17;6.78;;;5.45;;
61617;SDS011;47518;51.776;9.370;2023-06-10T00:38:42;6.70;;;5.13;;
61617;SDS011;47518;51.776;9.370;2023-06-10T00:41:08;7.35;;;5.30;;
61617;SDS011;47518;51.776;9.370;2023-06-10T00:43:33;8.23;;;5.65;;
61617;SDS011;47518;51.776;9.370;2023-06-10T00:45:59;7.28;;;5.50;;
61617;SDS011;47518;51.776;9.370;2023-06-10T00:48:25;5.78;;;5.25;;
61617;SDS011;47518;51.776;9.370;2023-06-10T00:50:51;7.25;;;5.43;;
61617;SDS011;47518;51.776;9.370;2023-06-10T00:53:17;7.38;;;6.20;;
61617;SDS011;47518;51.776;9.370;2023-06-10T00:55:43;8.10;;;5.57;;
61617;SDS011;47518;51.776;9.370;2023-06-10T00:58:09;9.48;;;5.60;;
61617;SDS011;47518;51.776;9.370;2023-06-10T01:00:35;6.20;;;5.57;;
61617;SDS011;47518;51.776;9.370;2023-06-10T01:03:01;5.97;;;5.43;;
61617;SDS011;47518;51.776;9.370;2023-06-10T01:05:27;6.20;;;5.60;;
61617;SDS011;47518;51.776;9.370;2023-06-10T01:10:43;6.07;;;5.43;;
61617;SDS011;47518;51.776;9.370;2023-06-10T01:13:15;6.70;;;5.63;;
61617;SDS011;47518;51.776;9.370;2023-06-10T01:15:44;6.32;;;5.22;;
61617;SDS011;47518;51.776;9.370;2023-06-10T01:18:10;7.32;;;5.38;;
61617;SDS011;47518;51.776;9.370;2023-06-10T01:20:40;6.50;;;5.75;;
61617;SDS011;47518;51.776;9.370;2023-06-10T01:23:08;5.97;;;5.47;;
61617;SDS011;47518;51.776;9.370;2023-06-10T01:25:37;5.65;;;5.07;;
61617;SDS011;47518;51.776;9.370;2023-06-10T01:28:19;6.88;;;5.60;;
61617;SDS011;47518;51.776;9.370;2023-06-10T01:33:46;5.82;;;5.32;;
61617;SDS011;47518;51.776;9.370;2023-06-10T01:36:16;6.82;;;5.80;;
61617;SDS011;47518;51.776;9.370;2023-06-10T01:41:35;7.15;;;5.55;;
61617;SDS011;47518;51.776;9.370;2023-06-10T01:44:05;6.05;;;5.13;;
61617;SDS011;47518;51.776;9.370;2023-06-10T01:46:30;6.68;;;5.80;;
61617;SDS011;47518;51.776;9.370;2023-06-10T01:48:56;7.07;;;5.55;;
61617;SDS011;47518;51.776;9.370;2023-06-10T01:51:22;6.80;;;5.50;;
61617;SDS011;47518;51.776;9.370;2023-06-10T01:53:47;7.75;;;5.43;;
61617;SDS011;47518;51.776;9.370;2023-06-10T01:56:14;9.60;;;5.57;;
61617;SDS011;47518;51.776;9.370;2023-06-10T01:58:42;6.72;;;5.38;;
61617;SDS011;47518;51.776;9.370;2023-06-10T02:01:09;7.97;;;6.05;;
61617;SDS011;47518;51.776;9.370;2023-06-10T02:03:37;8.43;;;5.80;;
61617;SDS011;47518;51.776;9.370;2023-06-10T02:06:03;6.25;;;5.30;;
61617;SDS011;47518;51.776;9.370;2023-06-10T02:08:28;6.72;;;5.28;;
61617;SDS011;47518;51.776;9.370;2023-06-10T02:10:54;5.93;;;5.32;;
61617;SDS011;47518;51.776;9.370;2023-06-10T02:13:19;6.80;;;5.50;;
61617;SDS011;47518;51.776;9.370;2023-06-10T02:15:45;6.38;;;5.50;;
61617;SDS011;47518;51.776;9.370;2023-06-10T02:18:13;6.22;;;5.50;;
61617;SDS011;47518;51.776;9.370;2023-06-10T02:20:38;6.10;;;5.50;;
61617;SDS011;47518;51.776;9.370;2023-06-10T02:23:04;10.60;;;5.65;;
61617;SDS011;47518;51.776;9.370;2023-06-10T02:25:29;6.25;;;5.60;;
61617;SDS011;47518;51.776;9.370;2023-06-10T02:27:55;6.43;;;5.47;;
61617;SDS011;47518;51.776;9.370;2023-06-10T02:30:20;8.35;;;6.10;;
61617;SDS011;47518;51.776;9.370;2023-06-10T02:32:47;6.07;;;5.47;;
61617;SDS011;47518;51.776;9.370;2023-06-10T02:35:13;7.97;;;5.90;;
61617;SDS011;47518;51.776;9.370;2023-06-10T02:37:39;7.65;;;5.88;;
61617;SDS011;47518;51.776;9.370;2023-06-10T02:40:05;5.90;;;5.30;;
61617;SDS011;47518;51.776;9.370;2023-06-10T02:42:32;10.55;;;5.82;;
61617;SDS011;47518;51.776;9.370;2023-06-10T02:44:57;7.32;;;5.88;;
61617;SDS011;47518;51.776;9.370;2023-06-10T02:47:22;6.53;;;5.90;;
61617;SDS011;47518;51.776;9.370;2023-06-10T02:49:48;6.00;;;5.40;;
61617;SDS011;47518;51.776;9.370;2023-06-10T02:52:13;6.68;;;5.70;;
61617;SDS011;47518;51.776;9.370;2023-06-10T02:54:38;7.68;;;5.88;;
61617;SDS011;47518;51.776;9.370;2023-06-10T02:57:04;7.90;;;5.57;;
61617;SDS011;47518;51.776;9.370;2023-06-10T02:59:35;8.93;;;6.00;;
61617;SDS011;47518;51.776;9.370;2023-06-10T03:02:00;6.78;;;5.90;;
61617;SDS011;47518;51.776;9.370;2023-06-10T03:04:35;6.72;;;5.68;;
61617;SDS011;47518;51.776;9.370;2023-06-10T03:07:04;7.32;;;6.15;;
61617;SDS011;47518;51.776;9.370;2023-06-10T03:09:32;8.43;;;5.80;;
61617;SDS011;47518;51.776;9.370;2023-06-10T03:11:57;7.57;;;6.22;;
61617;SDS011;47518;51.776;9.370;2023-06-10T03:14:32;7.03;;;5.70;;
61617;SDS011;47518;51.776;9.370;2023-06-10T03:16:59;6.10;;;5.53;;
61617;SDS011;47518;51.776;9.370;2023-06-10T03:19:25;7.85;;;6.18;;
61617;SDS011;47518;51.776;9.370;2023-06-10T03:21:58;8.43;;;6.13;;
61617;SDS011;47518;51.776;9.370;2023-06-10T03:24:33;6.47;;;5.88;;
61617;SDS011;47518;51.776;9.370;2023-06-10T03:26:59;6.65;;;6.05;;
61617;SDS011;47518;51.776;9.370;2023-06-10T03:29:25;7.10;;;6.38;;
61617;SDS011;47518;51.776;9.370;2023-06-10T03:31:50;6.78;;;5.80;;
61617;SDS011;47518;51.776;9.370;2023-06-10T03:34:34;7.80;;;6.03;;
61617;SDS011;47518;51.776;9.370;2023-06-10T03:37:03;7.53;;;5.75;;
61617;SDS011;47518;51.776;9.370;2023-06-10T03:39:30;6.75;;;5.75;;
61617;SDS011;47518;51.776;9.370;2023-06-10T03:41:55;14.20;;;5.70;;
61617;SDS011;47518;51.776;9.370;2023-06-10T03:44:22;11.10;;;6.22;;
61617;SDS011;47518;51.776;9.370;2023-06-10T03:46:47;9.48;;;5.75;;
61617;SDS011;47518;51.776;9.370;2023-06-10T03:49:14;6.32;;;5.63;;
61617;SDS011;47518;51.776;9.370;2023-06-10T03:51:40;6.45;;;5.70;;
61617;SDS011;47518;51.776;9.370;2023-06-10T03:54:08;7.47;;;5.68;;
61617;SDS011;47518;51.776;9.370;2023-06-10T03:56:34;8.10;;;5.70;;
61617;SDS011;47518;51.776;9.370;2023-06-10T03:59:00;6.75;;;6.15;;
61617;SDS011;47518;51.776;9.370;2023-06-10T04:01:28;7.65;;;5.90;;
61617;SDS011;47518;51.776;9.370;2023-06-10T04:03:55;7.20;;;5.70;;
61617;SDS011;47518;51.776;9.370;2023-06-10T04:06:20;9.65;;;6.03;;
61617;SDS011;47518;51.776;9.370;2023-06-10T04:08:47;10.93;;;5.95;;
61617;SDS011;47518;51.776;9.370;2023-06-10T04:11:13;7.07;;;5.63;;
61617;SDS011;47518;51.776;9.370;2023-06-10T04:13:42;9.90;;;6.10;;
61617;SDS011;47518;51.776;9.370;2023-06-10T04:16:07;7.15;;;6.07;;
61617;SDS011;47518;51.776;9.370;2023-06-10T04:18:33;6.32;;;5.47;;
61617;SDS011;47518;51.776;9.370;2023-06-10T04:20:59;7.18;;;5.45;;
61617;SDS011;47518;51.776;9.370;2023-06-10T04:23:24;7.05;;;6.05;;
61617;SDS011;47518;51.776;9.370;2023-06-10T04:25:51;7.50;;;5.45;;
61617;SDS011;47518;51.776;9.370;2023-06-10T04:28:16;6.57;;;5.65;;
61617;SDS011;47518;51.776;9.370;2023-06-10T04:30:41;6.82;;;5.30;;
61617;SDS011;47518;51.776;9.370;2023-06-10T04:33:07;7.80;;;5.80;;
61617;SDS011;47518;51.776;9.370;2023-06-10T04:35:34;7.25;;;5.40;;
61617;SDS011;47518;51.776;9.370;2023-06-10T04:37:59;6.40;;;5.80;;
61617;SDS011;47518;51.776;9.370;2023-06-10T04:40:24;7.22;;;5.78;;
61617;SDS011;47518;51.776;9.370;2023-06-10T04:42:50;6.97;;;5.72;;
61617;SDS011;47518;51.776;9.370;2023-06-10T04:45:16;7.35;;;5.82;;
61617;SDS011;47518;51.776;9.370;2023-06-10T04:47:41;5.80;;;5.30;;
61617;SDS011;47518;51.776;9.370;2023-06-10T04:50:07;7.80;;;5.95;;
61617;SDS011;47518;51.776;9.370;2023-06-10T04:52:32;9.85;;;5.95;;
61617;SDS011;47518;51.776;9.370;2023-06-10T04:54:58;6.57;;;5.63;;
61617;SDS011;47518;51.776;9.370;2023-06-10T04:57:27;6.00;;;5.40;;
61617;SDS011;47518;51.776;9.370;2023-06-10T04:59:52;6.57;;;5.55;;
61617;SDS011;47518;51.776;9.370;2023-06-10T05:02:20;9.70;;;5.97;;
61617;SDS011;47518;51.776;9.370;2023-06-10T05:04:49;7.85;;;5.65;;
61617;SDS011;47518;51.776;9.370;2023-06-10T05:07:14;8.57;;;5.40;;
61617;SDS011;47518;51.776;9.370;2023-06-10T05:09:39;6.78;;;5.50;;
61617;SDS011;47518;51.776;9.370;2023-06-10T05:12:05;6.40;;;5.72;;
61617;SDS011;47518;51.776;9.370;2023-06-10T05:14:31;8.80;;;5.78;;
61617;SDS011;47518;51.776;9.370;2023-06-10T05:16:57;6.78;;;5.97;;
61617;SDS011;47518;51.776;9.370;2023-06-10T05:19:22;7.45;;;5.90;;
61617;SDS011;47518;51.776;9.370;2023-06-10T05:21:48;6.93;;;5.97;;
61617;SDS011;47518;51.776;9.370;2023-06-10T05:24:16;6.45;;;5.85;;
61617;SDS011;47518;51.776;9.370;2023-06-10T05:26:41;8.13;;;5.72;;
61617;SDS011;47518;51.776;9.370;2023-06-10T05:29:07;8.43;;;5.57;;
61617;SDS011;47518;51.776;9.370;2023-06-10T05:31:34;7.05;;;5.90;;
61617;SDS011;47518;51.776;9.370;2023-06-10T05:34:00;7.05;;;5.82;;
61617;SDS011;47518;51.776;9.370;2023-06-10T05:36:28;10.38;;;5.90;;
61617;SDS011;47518;51.776;9.370;2023-06-10T05:38:59;7.22;;;5.70;;
61617;SDS011;47518;51.776;9.370;2023-06-10T05:41:34;7.38;;;5.88;;
61617;SDS011;47518;51.776;9.370;2023-06-10T05:46:27;7.32;;;6.28;;
61617;SDS011;47518;51.776;9.370;2023-06-10T05:48:54;7.22;;;5.65;;
61617;SDS011;47518;51.776;9.370;2023-06-10T05:51:19;6.38;;;5.13;;
61617;SDS011;47518;51.776;9.370;2023-06-10T05:53:51;9.23;;;5.57;;
61617;SDS011;47518;51.776;9.370;2023-06-10T05:56:16;6.22;;;5.25;;
61617;SDS011;47518;51.776;9.370;2023-06-10T05:58:42;7.25;;;5.55;;
61617;SDS011;47518;51.776;9.370;2023-06-10T06:01:08;8.07;;;5.13;;
61617;SDS011;47518;51.776;9.370;2023-06-10T06:03:39;8.05;;;5.25;;
61617;SDS011;47518;51.776;9.370;2023-06-10T06:06:05;6.78;;;5.40;;
61617;SDS011;47518;51.776;9.370;2023-06-10T06:08:34;8.55;;;5.18;;
61617;SDS011;47518;51.776;9.370;2023-06-10T06:25:34;7.20;;;5.60;;
61617;SDS011;47518;51.776;9.370;2023-06-10T06:28:00;7.35;;;5.57;;
61617;SDS011;47518;51.776;9.370;2023-06-10T06:30:26;8.57;;;5.53;;
61617;SDS011;47518;51.776;9.370;2023-06-10T06:32:52;8.82;;;5.75;;
61617;SDS011;47518;51.776;9.370;2023-06-10T06:35:17;5.68;;;5.15;;
61617;SDS011;47518;51.776;9.370;2023-06-10T06:37:45;6.75;;;5.13;;
61617;SDS011;47518;51.776;9.370;2023-06-10T06:40:12;5.90;;;5.10;;
61617;SDS011;47518;51.776;9.370;2023-06-10T06:42:38;9.13;;;5.50;;
61617;SDS011;47518;51.776;9.370;2023-06-10T06:45:03;7.50;;;5.18;;
61617;SDS011;47518;51.776;9.370;2023-06-10T06:47:29;5.53;;;4.95;;
61617;SDS011;47518;51.776;9.370;2023-06-10T06:49:54;7.53;;;5.00;;
61617;SDS011;47518;51.776;9.370;2023-06-10T06:52:23;7.63;;;5.30;;
61617;SDS011;47518;51.776;9.370;2023-06-10T06:54:48;7.35;;;5.03;;
61617;SDS011;47518;51.776;9.370;2023-06-10T06:57:14;6.70;;;5.20;;
61617;SDS011;47518;51.776;9.370;2023-06-10T06:59:40;6.90;;;5.00;;
61617;SDS011;47518;51.776;9.370;2023-06-10T07:02:05;8.32;;;5.40;;
61617;SDS011;47518;51.776;9.370;2023-06-10T07:04:34;8.18;;;5.03;;
61617;SDS011;47518;51.776;9.370;2023-06-10T07:06:59;5.65;;;5.03;;
61617;SDS011;47518;51.776;9.370;2023-06-10T07:09:25;7.55;;;5.22;;
61617;SDS011;47518;51.776;9.370;2023-06-10T07:11:50;9.48;;;5.60;;
61617;SDS011;47518;51.776;9.370;2023-06-10T07:14:16;7.03;;;5.15;;
61617;SDS011;47518;51.776;9.370;2023-06-10T07:16:41;6.95;;;4.93;;
61617;SDS011;47518;51.776;9.370;2023-06-10T07:19:09;6.88;;;5.55;;
61617;SDS011;47518;51.776;9.370;2023-06-10T07:21:34;7.28;;;5.10;;
61617;SDS011;47518;51.776;9.370;2023-06-10T07:24:01;5.97;;;5.25;;
61617;SDS011;47518;51.776;9.370;2023-06-10T07:26:26;6.28;;;5.35;;
61617;SDS011;47518;51.776;9.370;2023-06-10T07:28:52;6.90;;;5.55;;
61617;SDS011;47518;51.776;9.370;2023-06-10T07:31:17;7.05;;;5.32;;
61617;SDS011;47518;51.776;9.370;2023-06-10T07:33:46;5.75;;;4.95;;
61617;SDS011;47518;51.776;9.370;2023-06-10T07:36:21;7.75;;;5.20;;
61617;SDS011;47518;51.776;9.370;2023-06-10T07:38:46;5.75;;;5.13;;
61617;SDS011;47518;51.776;9.370;2023-06-10T07:41:12;5.95;;;4.95;;
61617;SDS011;47518;51.776;9.370;2023-06-10T07:43:37;7.90;;;5.00;;
61617;SDS011;47518;51.776;9.370;2023-06-10T07:46:03;6.75;;;5.13;;
61617;SDS011;47518;51.776;9.370;2023-06-10T07:48:30;8.52;;;5.30;;
61617;SDS011;47518;51.776;9.370;2023-06-10T07:50:56;7.28;;;5.40;;
61617;SDS011;47518;51.776;9.370;2023-06-10T07:53:25;8.90;;;5.28;;
61617;SDS011;47518;51.776;9.370;2023-06-10T07:55:50;7.40;;;5.15;;
61617;SDS011;47518;51.776;9.370;2023-06-10T07:58:15;7.05;;;5.53;;
61617;SDS011;47518;51.776;9.370;2023-06-10T08:00:41;7.22;;;5.32;;
61617;SDS011;47518;51.776;9.370;2023-06-10T08:03:07;6.60;;;5.03;;
61617;SDS011;47518;51.776;9.370;2023-06-10T08:05:32;7.00;;;5.30;;
61617;SDS011;47518;51.776;9.370;2023-06-10T08:08:03;6.90;;;5.22;;
61617;SDS011;47518;51.776;9.370;2023-06-10T08:10:29;6.35;;;5.35;;
61617;SDS011;47518;51.776;9.370;2023-06-10T08:12:54;6.93;;;5.18;;
61617;SDS011;47518;51.776;9.370;2023-06-10T08:15:29;5.80;;;5.10;;
61617;SDS011;47518;51.776;9.370;2023-06-10T08:17:55;11.00;;;5.47;;
61617;SDS011;47518;51.776;9.370;2023-06-10T08:20:21;6.22;;;4.93;;
61617;SDS011;47518;51.776;9.370;2023-06-10T08:22:47;6.57;;;5.00;;
61617;SDS011;47518;51.776;9.370;2023-06-10T08:25:12;5.35;;;4.85;;
61617;SDS011;47518;51.776;9.370;2023-06-10T08:27:38;8.60;;;5.25;;
61617;SDS011;47518;51.776;9.370;2023-06-10T08:30:04;5.38;;;4.88;;
61617;SDS011;47518;51.776;9.370;2023-06-10T08:32:30;5.70;;;5.10;;
61617;SDS011;47518;51.776;9.370;2023-06-10T08:34:56;6.18;;;5.38;;
61617;SDS011;47518;51.776;9.370;2023-06-10T08:37:21;9.18;;;4.97;;
61617;SDS011;47518;51.776;9.370;2023-06-10T08:39:50;5.60;;;5.03;;
61617;SDS011;47518;51.776;9.370;2023-06-10T08:44:58;6.05;;;4.85;;
61617;SDS011;47518;51.776;9.370;2023-06-10T08:47:31;8.98;;;5.07;;
61617;SDS011;47518;51.776;9.370;2023-06-10T08:50:03;7.80;;;5.50;;
61617;SDS011;47518;51.776;9.370;2023-06-10T08:52:29;6.10;;;5.03;;
61617;SDS011;47518;51.776;9.370;2023-06-10T08:55:03;5.93;;;4.70;;
61617;SDS011;47518;51.776;9.370;2023-06-10T08:57:30;7.05;;;5.28;;
61617;SDS011;47518;51.776;9.370;2023-06-10T08:59:56;8.43;;;5.30;;
61617;SDS011;47518;51.776;9.370;2023-06-10T09:02:24;6.22;;;5.20;;
61617;SDS011;47518;51.776;9.370;2023-06-10T09:04:49;7.13;;;5.18;;
61617;SDS011;47518;51.776;9.370;2023-06-10T09:07:15;6.43;;;5.35;;
61617;SDS011;47518;51.776;9.370;2023-06-10T09:09:42;6.38;;;5.35;;
61617;SDS011;47518;51.776;9.370;2023-06-10T09:12:08;5.80;;;5.20;;
61617;SDS011;47518;51.776;9.370;2023-06-10T09:14:33;6.13;;;5.40;;
61617;SDS011;47518;51.776;9.370;2023-06-10T09:16:59;5.88;;;5.28;;
61617;SDS011;47518;51.776;9.370;2023-06-10T09:19:25;5.80;;;5.20;;
61617;SDS011;47518;51.776;9.370;2023-06-10T09:21:52;6.40;;;5.38;;
61617;SDS011;47518;51.776;9.370;2023-06-10T09:24:17;7.00;;;5.43;;
61617;SDS011;47518;51.776;9.370;2023-06-10T09:26:43;6.47;;;5.47;;
61617;SDS011;47518;51.776;9.370;2023-06-10T09:29:09;8.32;;;5.50;;
61617;SDS011;47518;51.776;9.370;2023-06-10T09:31:36;6.43;;;5.57;;
61617;SDS011;47518;51.776;9.370;2023-06-10T09:37:04;6.53;;;5.57;;
61617;SDS011;47518;51.776;9.370;2023-06-10T09:39:30;7.68;;;5.70;;
61617;SDS011;47518;51.776;9.370;2023-06-10T09:41:55;6.60;;;5.68;;
61617;SDS011;47518;51.776;9.370;2023-06-10T09:44:21;6.18;;;5.57;;
61617;SDS011;47518;51.776;9.370;2023-06-10T09:46:48;8.30;;;5.80;;
61617;SDS011;47518;51.776;9.370;2023-06-10T09:49:15;7.35;;;5.70;;
61617;SDS011;47518;51.776;9.370;2023-06-10T09:51:50;6.00;;;5.40;;
61617;SDS011;47518;51.776;9.370;2023-06-10T09:54:25;6.05;;;5.50;;
61617;SDS011;47518;51.776;9.370;2023-06-10T09:56:57;7.55;;;6.78;;
61617;SDS011;47518;51.776;9.370;2023-06-10T09:59:31;6.75;;;5.93;;
61617;SDS011;47518;51.776;9.370;2023-06-10T10:01:57;6.78;;;6.13;;
61617;SDS011;47518;51.776;9.370;2023-06-10T10:04:34;7.18;;;5.68;;
61617;SDS011;47518;51.776;9.370;2023-06-10T10:07:02;6.90;;;6.20;;
61617;SDS011;47518;51.776;9.370;2023-06-10T10:09:28;7.57;;;6.00;;
61617;SDS011;47518;51.776;9.370;2023-06-10T10:11:53;6.50;;;5.90;;
61617;SDS011;47518;51.776;9.370;2023-06-10T10:14:19;8.82;;;6.18;;
61617;SDS011;47518;51.776;9.370;2023-06-10T10:16:46;7.38;;;6.00;;
61617;SDS011;47518;51.776;9.370;2023-06-10T10:19:16;11.73;;;6.50;;
61617;SDS011;47518;51.776;9.370;2023-06-10T10:21:52;9.00;;;6.32;;
61617;SDS011;47518;51.776;9.370;2023-06-10T10:24:20;7.40;;;5.90;;
61617;SDS011;47518;51.776;9.370;2023-06-10T10:26:48;7.00;;;6.20;;
61617;SDS011;47518;51.776;9.370;2023-06-10T10:29:16;8.93;;;6.40;;
61617;SDS011;47518;51.776;9.370;2023-06-10T10:31:50;8.70;;;6.25;;
61617;SDS011;47518;51.776;9.370;2023-06-10T10:37:22;6.90;;;6.22;;
61617;SDS011;47518;51.776;9.370;2023-06-10T10:39:48;11.48;;;6.60;;
61617;SDS011;47518;51.776;9.370;2023-06-10T10:42:14;7.55;;;6.75;;
61617;SDS011;47518;51.776;9.370;2023-06-10T10:44:41;7.05;;;6.45;;
61617;SDS011;47518;51.776;9.370;2023-06-10T10:47:08;7.60;;;6.93;;
61617;SDS011;47518;51.776;9.370;2023-06-10T10:49:35;7.53;;;6.70;;
61617;SDS011;47518;51.776;9.370;2023-06-10T10:52:02;9.07;;;6.95;;
61617;SDS011;47518;51.776;9.370;2023-06-10T10:57:12;8.20;;;6.88;;
61617;SDS011;47518;51.776;9.370;2023-06-10T10:59:55;7.93;;;7.13;;
61617;SDS011;47518;51.776;9.370;2023-06-10T11:02:41;12.43;;;6.88;;
61617;SDS011;47518;51.776;9.370;2023-06-10T11:05:09;8.70;;;7.15;;
61617;SDS011;47518;51.776;9.370;2023-06-10T11:07:36;10.27;;;7.15;;
61617;SDS011;47518;51.776;9.370;2023-06-10T11:10:10;8.23;;;7.30;;
61617;SDS011;47518;51.776;9.370;2023-06-10T11:12:40;8.60;;;7.30;;
61617;SDS011;47518;51.776;9.370;2023-06-10T11:15:24;12.75;;;7.75;;
61617;SDS011;47518;51.776;9.370;2023-06-10T11:18:10;10.50;;;7.85;;
61617;SDS011;47518;51.776;9.370;2023-06-10T11:21:00;9.38;;;7.65;;
61617;SDS011;47518;51.776;9.370;2023-06-10T11:26:16;9.38;;;7.35;;
61617;SDS011;47518;51.776;9.370;2023-06-10T11:31:26;9.63;;;7.78;;
61617;SDS011;47518;51.776;9.370;2023-06-10T11:33:54;8.68;;;7.70;;
61617;SDS011;47518;51.776;9.370;2023-06-10T11:47:00;8.27;;;7.47;;
61617;SDS011;47518;51.776;9.370;2023-06-10T11:49:26;8.35;;;7.53;;
61617;SDS011;47518;51.776;9.370;2023-06-10T11:51:51;9.35;;;7.32;;
61617;SDS011;47518;51.776;9.370;2023-06-10T11:54:16;11.68;;;8.07;;
61617;SDS011;47518;51.776;9.370;2023-06-10T11:56:42;9.32;;;7.70;;
61617;SDS011;47518;51.776;9.370;2023-06-10T11:59:08;8.18;;;7.40;;
61617;SDS011;47518;51.776;9.370;2023-06-10T12:01:34;10.30;;;7.70;;
61617;SDS011;47518;51.776;9.370;2023-06-10T12:04:03;9.05;;;7.82;;
61617;SDS011;47518;51.776;9.370;2023-06-10T12:09:18;8.95;;;7.80;;
61617;SDS011;47518;51.776;9.370;2023-06-10T12:11:45;8.90;;;7.72;;
61617;SDS011;47518;51.776;9.370;2023-06-10T12:14:15;8.93;;;7.63;;
61617;SDS011;47518;51.776;9.370;2023-06-10T12:16:40;11.45;;;7.50;;
61617;SDS011;47518;51.776;9.370;2023-06-10T12:19:13;17.05;;;7.88;;
61617;SDS011;47518;51.776;9.370;2023-06-10T12:21:39;8.90;;;8.00;;
61617;SDS011;47518;51.776;9.370;2023-06-10T12:24:06;11.82;;;8.02;;
61617;SDS011;47518;51.776;9.370;2023-06-10T12:26:41;13.10;;;8.27;;
61617;SDS011;47518;51.776;9.370;2023-06-10T12:29:17;9.00;;;8.10;;
61617;SDS011;47518;51.776;9.370;2023-06-10T12:32:01;9.68;;;8.50;;
61617;SDS011;47518;51.776;9.370;2023-06-10T12:34:30;8.85;;;7.95;;
61617;SDS011;47518;51.776;9.370;2023-06-10T12:37:00;10.13;;;7.75;;
61617;SDS011;47518;51.776;9.370;2023-06-10T12:39:26;10.02;;;8.32;;
61617;SDS011;47518;51.776;9.370;2023-06-10T12:41:52;9.40;;;8.40;;
61617;SDS011;47518;51.776;9.370;2023-06-10T12:44:17;11.98;;;8.27;;
61617;SDS011;47518;51.776;9.370;2023-06-10T12:46:43;9.23;;;8.20;;
61617;SDS011;47518;51.776;9.370;2023-06-10T12:49:18;8.75;;;7.72;;
61617;SDS011;47518;51.776;9.370;2023-06-10T12:51:44;10.88;;;8.18;;
61617;SDS011;47518;51.776;9.370;2023-06-10T12:54:10;12.93;;;8.43;;
61617;SDS011;47518;51.776;9.370;2023-06-10T12:56:35;10.38;;;7.93;;
61617;SDS011;47518;51.776;9.370;2023-06-10T12:59:01;9.65;;;8.52;;
61617;SDS011;47518;51.776;9.370;2023-06-10T13:01:27;16.20;;;8.48;;
61617;SDS011;47518;51.776;9.370;2023-06-10T13:03:53;12.68;;;8.23;;
61617;SDS011;47518;51.776;9.370;2023-06-10T13:06:19;10.02;;;8.32;;
61617;SDS011;47518;51.776;9.370;2023-06-10T13:08:45;13.15;;;8.30;;
61617;SDS011;47518;51.776;9.370;2023-06-10T13:11:11;9.63;;;8.68;;
61617;SDS011;47518;51.776;9.370;2023-06-10T13:13:37;11.50;;;8.70;;
61617;SDS011;47518;51.776;9.370;2023-06-10T13:16:02;10.30;;;8.27;;
61617;SDS011;47518;51.776;9.370;2023-06-10T13:18:28;9.15;;;8.05;;
61617;SDS011;47518;51.776;9.370;2023-06-10T13:20:53;10.07;;;8.27;;
61617;SDS011;47518;51.776;9.370;2023-06-10T13:23:19;9.45;;;8.05;;
61617;SDS011;47518;51.776;9.370;2023-06-10T13:25:44;10.30;;;8.30;;
61617;SDS011;47518;51.776;9.370;2023-06-10T13:28:10;9.65;;;8.50;;
61617;SDS011;47518;51.776;9.370;2023-06-10T13:30:36;14.13;;;8.43;;
61617;SDS011;47518;51.776;9.370;2023-06-10T13:33:02;10.25;;;8.27;;
61617;SDS011;47518;51.776;9.370;2023-06-10T13:35:27;8.93;;;8.00;;
61617;SDS011;47518;51.776;9.370;2023-06-10T13:37:53;9.10;;;8.10;;
61617;SDS011;47518;51.776;9.370;2023-06-10T13:40:18;9.38;;;8.38;;
61617;SDS011;47518;51.776;9.370;2023-06-10T13:42:44;13.38;;;8.80;;
61617;SDS011;47518;51.776;9.370;2023-06-10T13:45:14;10.38;;;8.43;;
61617;SDS011;47518;51.776;9.370;2023-06-10T13:47:39;9.32;;;8.27;;
61617;SDS011;47518;51.776;9.370;2023-06-10T13:50:06;9.88;;;8.20;;
61617;SDS011;47518;51.776;9.370;2023-06-10T13:52:32;9.10;;;8.00;;
61617;SDS011;47518;51.776;9.370;2023-06-10T13:54:57;8.98;;;8.10;;
61617;SDS011;47518;51.776;9.370;2023-06-10T13:57:23;9.27;;;8.18;;
61617;SDS011;47518;51.776;9.370;2023-06-10T13:59:48;9.68;;;8.20;;
61617;SDS011;47518;51.776;9.370;2023-06-10T14:02:13;9.60;;;8.32;;
61617;SDS011;47518;51.776;9.370;2023-06-10T14:04:39;9.07;;;8.27;;
61617;SDS011;47518;51.776;9.370;2023-06-10T14:07:05;9.75;;;8.23;;
61617;SDS011;47518;51.776;9.370;2023-06-10T14:09:30;10.10;;;8.13;;
61617;SDS011;47518;51.776;9.370;2023-06-10T14:11:56;9.77;;;8.40;;
61617;SDS011;47518;51.776;9.370;2023-06-10T14:14:21;9.82;;;7.90;;
61617;SDS011;47518;51.776;9.370;2023-06-10T14:16:47;10.48;;;8.00;;
61617;SDS011;47518;51.776;9.370;2023-06-10T14:19:13;8.95;;;7.78;;
61617;SDS011;47518;51.776;9.370;2023-06-10T14:21:38;10.93;;;8.27;;
61617;SDS011;47518;51.776;9.370;2023-06-10T14:24:03;9.13;;;8.10;;
61617;SDS011;47518;51.776;9.370;2023-06-10T14:26:32;10.68;;;8.65;;
61617;SDS011;47518;51.776;9.370;2023-06-10T14:28:58;9.70;;;7.32;;
61617;SDS011;47518;51.776;9.370;2023-06-10T14:31:23;8.73;;;7.47;;
61617;SDS011;47518;51.776;9.370;2023-06-10T14:33:51;11.95;;;7.90;;
61617;SDS011;47518;51.776;9.370;2023-06-10T14:36:16;8.20;;;7.30;;
61617;SDS011;47518;51.776;9.370;2023-06-10T14:38:45;9.85;;;7.95;;
61617;SDS011;47518;51.776;9.370;2023-06-10T14:41:11;7.60;;;6.90;;
61617;SDS011;47518;51.776;9.370;2023-06-10T14:43:36;8.10;;;7.30;;
61617;SDS011;47518;51.776;9.370;2023-06-10T14:46:04;8.27;;;7.43;;
61617;SDS011;47518;51.776;9.370;2023-06-10T14:48:30;10.48;;;6.95;;
61617;SDS011;47518;51.776;9.370;2023-06-10T14:50:58;8.13;;;7.50;;
61617;SDS011;47518;51.776;9.370;2023-06-10T14:53:24;12.88;;;7.88;;
61617;SDS011;47518;51.776;9.370;2023-06-10T14:55:49;8.85;;;7.10;;
61617;SDS011;47518;51.776;9.370;2023-06-10T14:58:20;8.30;;;7.05;;
61617;SDS011;47518;51.776;9.370;2023-06-10T15:00:45;8.43;;;7.35;;
61617;SDS011;47518;51.776;9.370;2023-06-10T15:03:11;8.13;;;7.18;;
61617;SDS011;47518;51.776;9.370;2023-06-10T15:05:36;8.52;;;6.93;;
61617;SDS011;47518;51.776;9.370;2023-06-10T15:08:02;8.43;;;6.78;;
61617;SDS011;47518;51.776;9.370;2023-06-10T15:10:29;7.78;;;7.10;;
61617;SDS011;47518;51.776;9.370;2023-06-10T15:12:54;7.88;;;6.90;;
61617;SDS011;47518;51.776;9.370;2023-06-10T15:15:22;10.73;;;7.10;;
61617;SDS011;47518;51.776;9.370;2023-06-10T15:17:48;7.35;;;6.65;;
61617;SDS011;47518;51.776;9.370;2023-06-10T15:20:13;7.65;;;6.90;;
61617;SDS011;47518;51.776;9.370;2023-06-10T15:22:39;9.57;;;7.30;;
61617;SDS011;47518;51.776;9.370;2023-06-10T15:25:07;7.38;;;6.68;;
61617;SDS011;47518;51.776;9.370;2023-06-10T15:27:32;9.18;;;6.53;;
61617;SDS011;47518;51.776;9.370;2023-06-10T15:29:58;9.52;;;6.75;;
61617;SDS011;47518;51.776;9.370;2023-06-10T15:32:26;8.30;;;6.97;;
61617;SDS011;47518;51.776;9.370;2023-06-10T15:34:51;7.35;;;6.65;;
61617;SDS011;47518;51.776;9.370;2023-06-10T15:37:18;7.00;;;6.30;;
61617;SDS011;47518;51.776;9.370;2023-06-10T15:39:44;7.00;;;6.35;;
61617;SDS011;47518;51.776;9.370;2023-06-10T15:42:09;6.95;;;6.20;;